Airfield :
LOGIN :

Register | Disclaimer

   EN    FR    IT 

 










Legend :    VFR   Marginal VFR   IFR   Intensive IFR   Very Intensive IFR
Visi :
Ceiling :
>= 8 km
>= 3000ft
5 to 8 km
1000 to 3000 ft
1500m to 5 km
500 to 1000 ft
800 to 1500m
200 to 500 ft
< 800m
< 200 ft
Symbols :   Thunderstorms  Fog  Heavy snow  Heavy precipitations  Wind > 20 kt
SIGMETs :     Misc.  Thunderstorms  Icing  Turbulence  Mountain Waves  Volcanic Ashes







- Airport Elevation : 1411 ft
- IATA code : SZG


LOWS - Salzburg

CURRENT METAR :
  • 220120Z AUTO VRB01KT 9999 FEW200 M01/M02 Q1031

EXPIRED METARs :
  • 220050Z AUTO 19002KT 9999 FEW160 M01/M04 Q1031
  • 220020Z AUTO 13003KT 9999 NSC 00/M02 Q1031
  • 212350Z AUTO 16005KT 120V190 9999 FEW200 01/M02 Q1031
  • 212320Z AUTO 13004KT 9999 NSC 03/M01 Q1031
  • 212250Z AUTO VRB02KT 9999 FEW200 03/M01 Q1031

TAF TAF LOWS
Valid from the 22 at 00:00 until the 23 at 00:00 UTC


212315Z 2200/2224 15005KT CAVOK TX18/2215Z TNM01/2205Z
BECMG 2208/2211 01007KT
BECMG 2218/2221 16005KT
No reported NOTAMs for that airfield.



MET'MAP, your aeronautical weather chart ! - Copyright ORBIFLY December 2007 - Disclaimer

ORBIFLY MET'MAP TEAM :

Programming & Development : Alexandra Zaïnal
Concept & Development : Baudouin d'Aumeries
Co-Development & Prog : Marc-Olivier Méhu
Technical & hardware support : Manuel Goepfert

Contact : metmap@orbifly.com




SOURCES & CREDITS :

   NOAA